sensor_id;sensor_type;location;lat;lon;timestamp;P1;durP1;ratioP1;P2;durP2;ratioP2
7128;SDS011;3606;52.930;8.644;2023-01-30T00:00:33;43.13;;;24.13;;
7128;SDS011;3606;52.930;8.644;2023-01-30T00:03:00;38.73;;;24.07;;
7128;SDS011;3606;52.930;8.644;2023-01-30T00:05:26;37.83;;;23.00;;
7128;SDS011;3606;52.930;8.644;2023-01-30T00:07:51;42.97;;;22.37;;
7128;SDS011;3606;52.930;8.644;2023-01-30T00:10:17;42.17;;;23.93;;
7128;SDS011;3606;52.930;8.644;2023-01-30T00:12:43;41.60;;;23.67;;
7128;SDS011;3606;52.930;8.644;2023-01-30T00:15:09;38.17;;;21.47;;
7128;SDS011;3606;52.930;8.644;2023-01-30T00:17:35;47.73;;;23.97;;
7128;SDS011;3606;52.930;8.644;2023-01-30T00:20:00;35.50;;;22.83;;
7128;SDS011;3606;52.930;8.644;2023-01-30T00:22:26;46.30;;;25.00;;
7128;SDS011;3606;52.930;8.644;2023-01-30T00:24:51;41.33;;;23.43;;
7128;SDS011;3606;52.930;8.644;2023-01-30T00:27:17;49.03;;;25.13;;
7128;SDS011;3606;52.930;8.644;2023-01-30T00:29:42;49.47;;;25.13;;
7128;SDS011;3606;52.930;8.644;2023-01-30T00:32:08;42.83;;;24.13;;
7128;SDS011;3606;52.930;8.644;2023-01-30T00:34:33;47.50;;;24.60;;
7128;SDS011;3606;52.930;8.644;2023-01-30T00:36:59;42.77;;;23.37;;
7128;SDS011;3606;52.930;8.644;2023-01-30T00:39:25;40.30;;;24.20;;
7128;SDS011;3606;52.930;8.644;2023-01-30T00:41:50;45.90;;;25.70;;
7128;SDS011;3606;52.930;8.644;2023-01-30T00:44:35;44.20;;;24.53;;
7128;SDS011;3606;52.930;8.644;2023-01-30T00:47:19;41.13;;;22.73;;
7128;SDS011;3606;52.930;8.644;2023-01-30T00:49:46;48.47;;;25.07;;
7128;SDS011;3606;52.930;8.644;2023-01-30T00:52:11;47.60;;;25.60;;
7128;SDS011;3606;52.930;8.644;2023-01-30T00:54:37;47.90;;;26.37;;
7128;SDS011;3606;52.930;8.644;2023-01-30T00:57:02;49.57;;;25.43;;
7128;SDS011;3606;52.930;8.644;2023-01-30T00:59:28;44.50;;;24.37;;
7128;SDS011;3606;52.930;8.644;2023-01-30T01:01:54;45.30;;;24.80;;
7128;SDS011;3606;52.930;8.644;2023-01-30T01:04:19;50.17;;;26.00;;
7128;SDS011;3606;52.930;8.644;2023-01-30T01:06:45;46.40;;;25.93;;
7128;SDS011;3606;52.930;8.644;2023-01-30T01:09:10;44.40;;;24.27;;
7128;SDS011;3606;52.930;8.644;2023-01-30T01:11:36;54.83;;;27.03;;
7128;SDS011;3606;52.930;8.644;2023-01-30T01:14:02;47.13;;;25.20;;
7128;SDS011;3606;52.930;8.644;2023-01-30T01:16:29;46.40;;;25.93;;
7128;SDS011;3606;52.930;8.644;2023-01-30T01:18:55;49.03;;;25.33;;
7128;SDS011;3606;52.930;8.644;2023-01-30T01:21:21;43.47;;;26.20;;
7128;SDS011;3606;52.930;8.644;2023-01-30T01:23:50;43.63;;;24.27;;
7128;SDS011;3606;52.930;8.644;2023-01-30T01:26:21;44.97;;;24.27;;
7128;SDS011;3606;52.930;8.644;2023-01-30T01:28:47;52.93;;;24.93;;
7128;SDS011;3606;52.930;8.644;2023-01-30T01:31:14;46.40;;;24.50;;
7128;SDS011;3606;52.930;8.644;2023-01-30T01:33:40;42.63;;;25.43;;
7128;SDS011;3606;52.930;8.644;2023-01-30T01:36:06;45.13;;;25.97;;
7128;SDS011;3606;52.930;8.644;2023-01-30T01:38:32;47.50;;;25.37;;
7128;SDS011;3606;52.930;8.644;2023-01-30T01:40:58;51.13;;;26.20;;
7128;SDS011;3606;52.930;8.644;2023-01-30T01:43:27;42.90;;;24.70;;
7128;SDS011;3606;52.930;8.644;2023-01-30T01:46:39;46.83;;;25.57;;
7128;SDS011;3606;52.930;8.644;2023-01-30T01:48:54;48.10;;;23.70;;
7128;SDS011;3606;52.930;8.644;2023-01-30T01:51:33;47.80;;;25.53;;
7128;SDS011;3606;52.930;8.644;2023-01-30T01:54:03;45.23;;;25.77;;
7128;SDS011;3606;52.930;8.644;2023-01-30T01:56:35;43.53;;;24.27;;
7128;SDS011;3606;52.930;8.644;2023-01-30T01:59:08;49.60;;;24.60;;
7128;SDS011;3606;52.930;8.644;2023-01-30T02:01:38;43.10;;;22.83;;
7128;SDS011;3606;52.930;8.644;2023-01-30T02:04:03;42.70;;;23.63;;
7128;SDS011;3606;52.930;8.644;2023-01-30T02:06:33;44.53;;;25.67;;
7128;SDS011;3606;52.930;8.644;2023-01-30T02:09:01;41.50;;;23.93;;
7128;SDS011;3606;52.930;8.644;2023-01-30T02:11:51;46.37;;;24.47;;
7128;SDS011;3606;52.930;8.644;2023-01-30T02:14:21;45.50;;;23.27;;
7128;SDS011;3606;52.930;8.644;2023-01-30T02:16:47;48.47;;;23.27;;
7128;SDS011;3606;52.930;8.644;2023-01-30T02:19:20;40.30;;;23.17;;
7128;SDS011;3606;52.930;8.644;2023-01-30T02:24:55;39.43;;;22.37;;
7128;SDS011;3606;52.930;8.644;2023-01-30T02:30:42;40.67;;;22.00;;
7128;SDS011;3606;52.930;8.644;2023-01-30T02:33:32;36.60;;;23.23;;
7128;SDS011;3606;52.930;8.644;2023-01-30T02:47:07;38.10;;;22.20;;
7128;SDS011;3606;52.930;8.644;2023-01-30T02:49:43;35.20;;;22.10;;
7128;SDS011;3606;52.930;8.644;2023-01-30T02:52:15;36.67;;;20.27;;
7128;SDS011;3606;52.930;8.644;2023-01-30T02:54:40;32.20;;;20.20;;
7128;SDS011;3606;52.930;8.644;2023-01-30T02:57:19;30.83;;;20.13;;
7128;SDS011;3606;52.930;8.644;2023-01-30T02:59:47;34.87;;;20.07;;
7128;SDS011;3606;52.930;8.644;2023-01-30T03:04:59;30.37;;;18.73;;
7128;SDS011;3606;52.930;8.644;2023-01-30T03:11:07;31.13;;;17.70;;
7128;SDS011;3606;52.930;8.644;2023-01-30T03:13:51;29.77;;;17.47;;
7128;SDS011;3606;52.930;8.644;2023-01-30T03:16:26;33.90;;;17.87;;
7128;SDS011;3606;52.930;8.644;2023-01-30T03:18:58;26.73;;;16.00;;
7128;SDS011;3606;52.930;8.644;2023-01-30T03:21:25;25.83;;;17.67;;
7128;SDS011;3606;52.930;8.644;2023-01-30T03:23:50;28.60;;;17.37;;
7128;SDS011;3606;52.930;8.644;2023-01-30T03:26:17;29.63;;;15.43;;
7128;SDS011;3606;52.930;8.644;2023-01-30T03:28:48;25.53;;;16.00;;
7128;SDS011;3606;52.930;8.644;2023-01-30T03:31:15;25.30;;;15.80;;
7128;SDS011;3606;52.930;8.644;2023-01-30T03:33:40;26.53;;;15.53;;
7128;SDS011;3606;52.930;8.644;2023-01-30T03:36:06;23.40;;;14.33;;
7128;SDS011;3606;52.930;8.644;2023-01-30T03:38:33;22.03;;;15.00;;
7128;SDS011;3606;52.930;8.644;2023-01-30T03:40:59;21.40;;;14.20;;
7128;SDS011;3606;52.930;8.644;2023-01-30T03:43:25;22.13;;;14.63;;
7128;SDS011;3606;52.930;8.644;2023-01-30T03:45:51;21.80;;;13.60;;
7128;SDS011;3606;52.930;8.644;2023-01-30T03:48:17;24.70;;;14.37;;
7128;SDS011;3606;52.930;8.644;2023-01-30T03:50:42;22.53;;;14.27;;
7128;SDS011;3606;52.930;8.644;2023-01-30T03:53:08;22.67;;;14.00;;
7128;SDS011;3606;52.930;8.644;2023-01-30T03:55:33;29.00;;;14.77;;
7128;SDS011;3606;52.930;8.644;2023-01-30T03:57:59;19.33;;;13.63;;
7128;SDS011;3606;52.930;8.644;2023-01-30T04:00:24;21.80;;;14.03;;
7128;SDS011;3606;52.930;8.644;2023-01-30T04:02:50;22.40;;;13.53;;
7128;SDS011;3606;52.930;8.644;2023-01-30T04:05:16;20.43;;;13.27;;
7128;SDS011;3606;52.930;8.644;2023-01-30T04:07:41;20.13;;;13.50;;
7128;SDS011;3606;52.930;8.644;2023-01-30T04:10:07;21.63;;;13.27;;
7128;SDS011;3606;52.930;8.644;2023-01-30T04:12:33;17.47;;;12.97;;
7128;SDS011;3606;52.930;8.644;2023-01-30T04:14:58;21.83;;;13.37;;
7128;SDS011;3606;52.930;8.644;2023-01-30T04:17:24;20.70;;;12.40;;
7128;SDS011;3606;52.930;8.644;2023-01-30T04:19:50;21.17;;;13.07;;
7128;SDS011;3606;52.930;8.644;2023-01-30T04:22:15;19.77;;;12.80;;
7128;SDS011;3606;52.930;8.644;2023-01-30T04:24:41;16.37;;;11.60;;
7128;SDS011;3606;52.930;8.644;2023-01-30T04:27:06;16.27;;;11.60;;
7128;SDS011;3606;52.930;8.644;2023-01-30T04:29:33;14.90;;;10.37;;
7128;SDS011;3606;52.930;8.644;2023-01-30T04:31:58;20.13;;;10.43;;
7128;SDS011;3606;52.930;8.644;2023-01-30T04:34:24;18.37;;;10.07;;
7128;SDS011;3606;52.930;8.644;2023-01-30T04:36:50;14.67;;;9.17;;
7128;SDS011;3606;52.930;8.644;2023-01-30T04:39:15;21.73;;;8.27;;
7128;SDS011;3606;52.930;8.644;2023-01-30T04:41:41;13.53;;;8.50;;
7128;SDS011;3606;52.930;8.644;2023-01-30T04:44:06;15.97;;;8.47;;
7128;SDS011;3606;52.930;8.644;2023-01-30T04:46:32;17.30;;;8.37;;
7128;SDS011;3606;52.930;8.644;2023-01-30T04:48:57;17.33;;;8.10;;
7128;SDS011;3606;52.930;8.644;2023-01-30T04:51:23;12.17;;;7.57;;
7128;SDS011;3606;52.930;8.644;2023-01-30T04:53:48;15.07;;;7.70;;
7128;SDS011;3606;52.930;8.644;2023-01-30T04:56:14;12.77;;;7.60;;
7128;SDS011;3606;52.930;8.644;2023-01-30T04:58:40;12.80;;;6.10;;
7128;SDS011;3606;52.930;8.644;2023-01-30T05:01:12;15.57;;;6.37;;
7128;SDS011;3606;52.930;8.644;2023-01-30T05:03:40;18.93;;;5.80;;
7128;SDS011;3606;52.930;8.644;2023-01-30T05:06:05;13.37;;;5.23;;
7128;SDS011;3606;52.930;8.644;2023-01-30T05:08:31;11.90;;;4.93;;
7128;SDS011;3606;52.930;8.644;2023-01-30T05:10:57;12.23;;;3.67;;
7128;SDS011;3606;52.930;8.644;2023-01-30T05:13:22;10.60;;;3.97;;
7128;SDS011;3606;52.930;8.644;2023-01-30T05:15:48;13.40;;;4.40;;
7128;SDS011;3606;52.930;8.644;2023-01-30T05:18:13;12.63;;;4.03;;
7128;SDS011;3606;52.930;8.644;2023-01-30T05:20:39;18.90;;;4.50;;
7128;SDS011;3606;52.930;8.644;2023-01-30T05:23:04;14.77;;;4.20;;
7128;SDS011;3606;52.930;8.644;2023-01-30T05:25:30;15.23;;;4.10;;
7128;SDS011;3606;52.930;8.644;2023-01-30T05:27:55;12.03;;;4.60;;
7128;SDS011;3606;52.930;8.644;2023-01-30T05:30:21;14.43;;;4.70;;
7128;SDS011;3606;52.930;8.644;2023-01-30T05:32:46;17.40;;;4.00;;
7128;SDS011;3606;52.930;8.644;2023-01-30T05:35:12;15.10;;;4.60;;
7128;SDS011;3606;52.930;8.644;2023-01-30T05:37:38;12.83;;;4.13;;
7128;SDS011;3606;52.930;8.644;2023-01-30T05:40:04;13.07;;;4.50;;
7128;SDS011;3606;52.930;8.644;2023-01-30T05:42:30;17.73;;;4.40;;
7128;SDS011;3606;52.930;8.644;2023-01-30T05:44:56;23.03;;;4.20;;
7128;SDS011;3606;52.930;8.644;2023-01-30T05:47:21;11.67;;;4.33;;
7128;SDS011;3606;52.930;8.644;2023-01-30T05:49:47;16.20;;;4.57;;
7128;SDS011;3606;52.930;8.644;2023-01-30T05:52:12;25.63;;;4.83;;
7128;SDS011;3606;52.930;8.644;2023-01-30T05:54:38;16.00;;;5.10;;
7128;SDS011;3606;52.930;8.644;2023-01-30T05:57:03;13.47;;;4.13;;
7128;SDS011;3606;52.930;8.644;2023-01-30T05:59:29;14.53;;;4.57;;
7128;SDS011;3606;52.930;8.644;2023-01-30T06:01:55;13.83;;;4.03;;
7128;SDS011;3606;52.930;8.644;2023-01-30T06:04:20;17.23;;;4.87;;
7128;SDS011;3606;52.930;8.644;2023-01-30T06:06:47;34.20;;;5.57;;
7128;SDS011;3606;52.930;8.644;2023-01-30T06:09:14;21.87;;;4.90;;
7128;SDS011;3606;52.930;8.644;2023-01-30T06:11:40;19.13;;;4.63;;
7128;SDS011;3606;52.930;8.644;2023-01-30T06:14:05;22.03;;;3.97;;
7128;SDS011;3606;52.930;8.644;2023-01-30T06:16:31;28.07;;;5.13;;
7128;SDS011;3606;52.930;8.644;2023-01-30T06:18:57;23.57;;;5.07;;
7128;SDS011;3606;52.930;8.644;2023-01-30T06:21:22;18.63;;;4.43;;
7128;SDS011;3606;52.930;8.644;2023-01-30T06:23:48;19.90;;;5.50;;
7128;SDS011;3606;52.930;8.644;2023-01-30T06:26:13;31.70;;;4.37;;
7128;SDS011;3606;52.930;8.644;2023-01-30T06:28:39;18.17;;;4.57;;
7128;SDS011;3606;52.930;8.644;2023-01-30T06:31:05;21.10;;;4.17;;
7128;SDS011;3606;52.930;8.644;2023-01-30T06:33:31;24.27;;;4.90;;
7128;SDS011;3606;52.930;8.644;2023-01-30T06:35:57;13.33;;;4.43;;
7128;SDS011;3606;52.930;8.644;2023-01-30T06:38:23;17.87;;;4.83;;
7128;SDS011;3606;52.930;8.644;2023-01-30T06:40:48;16.90;;;4.70;;
7128;SDS011;3606;52.930;8.644;2023-01-30T06:43:14;21.23;;;5.00;;
7128;SDS011;3606;52.930;8.644;2023-01-30T06:45:40;17.03;;;4.30;;
7128;SDS011;3606;52.930;8.644;2023-01-30T06:48:06;21.47;;;4.53;;
7128;SDS011;3606;52.930;8.644;2023-01-30T06:50:33;13.93;;;4.70;;
7128;SDS011;3606;52.930;8.644;2023-01-30T06:53:00;19.90;;;5.17;;
7128;SDS011;3606;52.930;8.644;2023-01-30T06:55:27;19.27;;;4.43;;
7128;SDS011;3606;52.930;8.644;2023-01-30T07:00:29;25.20;;;4.70;;
7128;SDS011;3606;52.930;8.644;2023-01-30T07:02:55;18.37;;;4.70;;
7128;SDS011;3606;52.930;8.644;2023-01-30T07:05:21;16.00;;;4.63;;
7128;SDS011;3606;52.930;8.644;2023-01-30T07:07:46;16.00;;;4.10;;
7128;SDS011;3606;52.930;8.644;2023-01-30T07:10:12;11.37;;;3.87;;
7128;SDS011;3606;52.930;8.644;2023-01-30T07:12:37;15.77;;;4.43;;
7128;SDS011;3606;52.930;8.644;2023-01-30T07:15:03;18.33;;;4.70;;
7128;SDS011;3606;52.930;8.644;2023-01-30T07:17:30;13.43;;;4.50;;
7128;SDS011;3606;52.930;8.644;2023-01-30T07:19:56;16.47;;;4.23;;
7128;SDS011;3606;52.930;8.644;2023-01-30T07:22:22;13.33;;;4.33;;
7128;SDS011;3606;52.930;8.644;2023-01-30T07:24:47;16.70;;;4.63;;
7128;SDS011;3606;52.930;8.644;2023-01-30T07:27:13;15.10;;;4.30;;
7128;SDS011;3606;52.930;8.644;2023-01-30T07:29:38;12.13;;;4.43;;
7128;SDS011;3606;52.930;8.644;2023-01-30T07:32:05;15.27;;;4.73;;
7128;SDS011;3606;52.930;8.644;2023-01-30T07:34:31;19.43;;;4.43;;
7128;SDS011;3606;52.930;8.644;2023-01-30T07:36:57;25.97;;;5.20;;
7128;SDS011;3606;52.930;8.644;2023-01-30T07:39:23;16.47;;;4.50;;
7128;SDS011;3606;52.930;8.644;2023-01-30T07:41:48;18.63;;;4.63;;
7128;SDS011;3606;52.930;8.644;2023-01-30T07:44:14;20.90;;;4.73;;
7128;SDS011;3606;52.930;8.644;2023-01-30T07:46:39;19.43;;;4.73;;
7128;SDS011;3606;52.930;8.644;2023-01-30T07:49:06;17.37;;;4.63;;
7128;SDS011;3606;52.930;8.644;2023-01-30T07:51:32;14.70;;;4.53;;
7128;SDS011;3606;52.930;8.644;2023-01-30T07:53:58;16.93;;;4.37;;
7128;SDS011;3606;52.930;8.644;2023-01-30T07:56:26;13.77;;;4.03;;
7128;SDS011;3606;52.930;8.644;2023-01-30T07:58:52;18.23;;;4.40;;
7128;SDS011;3606;52.930;8.644;2023-01-30T08:01:18;16.57;;;4.00;;
7128;SDS011;3606;52.930;8.644;2023-01-30T08:03:44;13.63;;;4.40;;
7128;SDS011;3606;52.930;8.644;2023-01-30T08:06:11;20.37;;;3.80;;
7128;SDS011;3606;52.930;8.644;2023-01-30T08:08:37;14.00;;;4.13;;
7128;SDS011;3606;52.930;8.644;2023-01-30T08:11:03;16.80;;;4.23;;
7128;SDS011;3606;52.930;8.644;2023-01-30T08:13:29;16.03;;;4.23;;
7128;SDS011;3606;52.930;8.644;2023-01-30T08:15:57;16.50;;;4.07;;
7128;SDS011;3606;52.930;8.644;2023-01-30T08:18:27;17.00;;;4.63;;
7128;SDS011;3606;52.930;8.644;2023-01-30T08:20:59;18.03;;;4.00;;
7128;SDS011;3606;52.930;8.644;2023-01-30T08:23:26;17.37;;;3.27;;
7128;SDS011;3606;52.930;8.644;2023-01-30T08:25:59;19.67;;;4.17;;
7128;SDS011;3606;52.930;8.644;2023-01-30T08:28:27;18.03;;;4.20;;
7128;SDS011;3606;52.930;8.644;2023-01-30T08:30:53;13.73;;;3.40;;
7128;SDS011;3606;52.930;8.644;2023-01-30T08:33:20;21.00;;;4.60;;
7128;SDS011;3606;52.930;8.644;2023-01-30T08:35:46;12.03;;;3.70;;
7128;SDS011;3606;52.930;8.644;2023-01-30T08:38:12;16.60;;;4.10;;
7128;SDS011;3606;52.930;8.644;2023-01-30T08:40:37;21.87;;;4.50;;
7128;SDS011;3606;52.930;8.644;2023-01-30T08:43:03;15.73;;;4.03;;
7128;SDS011;3606;52.930;8.644;2023-01-30T08:45:29;18.90;;;4.07;;
7128;SDS011;3606;52.930;8.644;2023-01-30T08:47:58;15.60;;;3.83;;
7128;SDS011;3606;52.930;8.644;2023-01-30T08:50:25;14.13;;;4.17;;
7128;SDS011;3606;52.930;8.644;2023-01-30T08:52:51;14.23;;;4.20;;
7128;SDS011;3606;52.930;8.644;2023-01-30T08:55:16;14.07;;;4.00;;
7128;SDS011;3606;52.930;8.644;2023-01-30T08:57:42;21.87;;;4.17;;
7128;SDS011;3606;52.930;8.644;2023-01-30T09:00:08;17.63;;;3.90;;
7128;SDS011;3606;52.930;8.644;2023-01-30T09:02:34;23.43;;;4.70;;
7128;SDS011;3606;52.930;8.644;2023-01-30T09:05:00;13.77;;;4.20;;
7128;SDS011;3606;52.930;8.644;2023-01-30T09:07:26;19.17;;;4.27;;
7128;SDS011;3606;52.930;8.644;2023-01-30T09:09:52;20.57;;;3.90;;
7128;SDS011;3606;52.930;8.644;2023-01-30T09:12:18;9.93;;;3.90;;
7128;SDS011;3606;52.930;8.644;2023-01-30T09:14:44;16.53;;;4.23;;
7128;SDS011;3606;52.930;8.644;2023-01-30T09:17:10;17.27;;;4.63;;
7128;SDS011;3606;52.930;8.644;2023-01-30T09:19:36;18.00;;;3.97;;
7128;SDS011;3606;52.930;8.644;2023-01-30T09:22:01;18.00;;;4.33;;
7128;SDS011;3606;52.930;8.644;2023-01-30T09:24:28;13.17;;;4.10;;
7128;SDS011;3606;52.930;8.644;2023-01-30T09:26:54;19.37;;;4.53;;
7128;SDS011;3606;52.930;8.644;2023-01-30T09:29:24;22.07;;;4.40;;
7128;SDS011;3606;52.930;8.644;2023-01-30T09:31:50;20.83;;;4.60;;
7128;SDS011;3606;52.930;8.644;2023-01-30T09:34:15;20.97;;;5.10;;
7128;SDS011;3606;52.930;8.644;2023-01-30T09:36:41;20.37;;;4.40;;
7128;SDS011;3606;52.930;8.644;2023-01-30T09:39:07;23.47;;;4.60;;
7128;SDS011;3606;52.930;8.644;2023-01-30T09:41:42;19.03;;;5.03;;
7128;SDS011;3606;52.930;8.644;2023-01-30T09:44:39;23.77;;;4.37;;
7128;SDS011;3606;52.930;8.644;2023-01-30T09:47:19;28.07;;;4.60;;
7128;SDS011;3606;52.930;8.644;2023-01-30T09:52:52;22.77;;;4.27;;
7128;SDS011;3606;52.930;8.644;2023-01-30T09:55:20;18.50;;;4.80;;
7128;SDS011;3606;52.930;8.644;2023-01-30T09:57:51;19.33;;;4.90;;
7128;SDS011;3606;52.930;8.644;2023-01-30T10:00:36;19.30;;;4.83;;
7128;SDS011;3606;52.930;8.644;2023-01-30T10:08:38;14.43;;;3.90;;
7128;SDS011;3606;52.930;8.644;2023-01-30T10:14:25;15.87;;;3.40;;
7128;SDS011;3606;52.930;8.644;2023-01-30T10:17:04;10.13;;;3.33;;
7128;SDS011;3606;52.930;8.644;2023-01-30T10:25:18;14.57;;;4.07;;
7128;SDS011;3606;52.930;8.644;2023-01-30T10:27:58;18.43;;;4.23;;
7128;SDS011;3606;52.930;8.644;2023-01-30T10:30:45;12.17;;;3.60;;
7128;SDS011;3606;52.930;8.644;2023-01-30T10:33:21;17.30;;;4.07;;
7128;SDS011;3606;52.930;8.644;2023-01-30T10:36:07;17.33;;;4.30;;
7128;SDS011;3606;52.930;8.644;2023-01-30T10:38:48;14.60;;;3.57;;
7128;SDS011;3606;52.930;8.644;2023-01-30T10:41:25;13.07;;;4.07;;
7128;SDS011;3606;52.930;8.644;2023-01-30T10:44:07;10.73;;;3.53;;
7128;SDS011;3606;52.930;8.644;2023-01-30T10:49:51;15.33;;;4.20;;
7128;SDS011;3606;52.930;8.644;2023-01-30T10:52:32;13.70;;;3.90;;
7128;SDS011;3606;52.930;8.644;2023-01-30T10:55:29;15.10;;;3.93;;
7128;SDS011;3606;52.930;8.644;2023-01-30T11:06:11;13.63;;;3.57;;
7128;SDS011;3606;52.930;8.644;2023-01-30T11:08:43;12.37;;;3.03;;
7128;SDS011;3606;52.930;8.644;2023-01-30T11:14:06;11.43;;;4.03;;
7128;SDS011;3606;52.930;8.644;2023-01-30T11:16:49;16.27;;;4.50;;
7128;SDS011;3606;52.930;8.644;2023-01-30T11:19:18;17.40;;;3.57;;
7128;SDS011;3606;52.930;8.644;2023-01-30T11:21:49;14.77;;;3.77;;
7128;SDS011;3606;52.930;8.644;2023-01-30T11:24:18;18.10;;;4.40;;
7128;SDS011;3606;52.930;8.644;2023-01-30T11:29:45;14.30;;;3.63;;
7128;SDS011;3606;52.930;8.644;2023-01-30T11:32:14;17.23;;;4.03;;
7128;SDS011;3606;52.930;8.644;2023-01-30T11:35:00;14.77;;;4.03;;
7128;SDS011;3606;52.930;8.644;2023-01-30T11:37:33;14.13;;;3.70;;
7128;SDS011;3606;52.930;8.644;2023-01-30T11:40:18;16.50;;;3.50;;
7128;SDS011;3606;52.930;8.644;2023-01-30T11:42:51;13.70;;;3.23;;
7128;SDS011;3606;52.930;8.644;2023-01-30T11:45:23;17.93;;;3.83;;
7128;SDS011;3606;52.930;8.644;2023-01-30T11:47:55;16.30;;;3.90;;
7128;SDS011;3606;52.930;8.644;2023-01-30T11:50:25;11.90;;;3.57;;
7128;SDS011;3606;52.930;8.644;2023-01-30T11:53:01;12.10;;;3.10;;
7128;SDS011;3606;52.930;8.644;2023-01-30T11:55:31;8.33;;;3.30;;
7128;SDS011;3606;52.930;8.644;2023-01-30T11:58:00;12.60;;;3.50;;
7128;SDS011;3606;52.930;8.644;2023-01-30T12:00:36;15.80;;;3.80;;
7128;SDS011;3606;52.930;8.644;2023-01-30T12:03:04;12.23;;;3.13;;
7128;SDS011;3606;52.930;8.644;2023-01-30T12:05:35;17.13;;;3.87;;
7128;SDS011;3606;52.930;8.644;2023-01-30T12:10:43;12.77;;;3.53;;
7128;SDS011;3606;52.930;8.644;2023-01-30T12:13:17;17.53;;;4.10;;
7128;SDS011;3606;52.930;8.644;2023-01-30T12:19:24;12.63;;;3.27;;
7128;SDS011;3606;52.930;8.644;2023-01-30T12:22:04;19.13;;;4.30;;
7128;SDS011;3606;52.930;8.644;2023-01-30T12:25:03;11.07;;;3.33;;
7128;SDS011;3606;52.930;8.644;2023-01-30T12:30:42;11.20;;;3.73;;
7128;SDS011;3606;52.930;8.644;2023-01-30T12:33:15;16.90;;;3.83;;
7128;SDS011;3606;52.930;8.644;2023-01-30T12:39:05;14.20;;;4.33;;
7128;SDS011;3606;52.930;8.644;2023-01-30T12:45:00;19.03;;;3.70;;
7128;SDS011;3606;52.930;8.644;2023-01-30T12:58:40;14.03;;;3.80;;
7128;SDS011;3606;52.930;8.644;2023-01-30T13:01:19;13.07;;;3.77;;
7128;SDS011;3606;52.930;8.644;2023-01-30T13:04:14;10.83;;;3.37;;
7128;SDS011;3606;52.930;8.644;2023-01-30T13:07:07;18.70;;;3.97;;
7128;SDS011;3606;52.930;8.644;2023-01-30T13:12:41;16.73;;;4.60;;
7128;SDS011;3606;52.930;8.644;2023-01-30T13:15:21;13.57;;;5.03;;
7128;SDS011;3606;52.930;8.644;2023-01-30T13:28:44;7.33;;;3.27;;
7128;SDS011;3606;52.930;8.644;2023-01-30T13:31:16;12.20;;;3.10;;
7128;SDS011;3606;52.930;8.644;2023-01-30T13:33:46;7.73;;;3.37;;
7128;SDS011;3606;52.930;8.644;2023-01-30T13:39:04;19.10;;;3.60;;
7128;SDS011;3606;52.930;8.644;2023-01-30T13:41:40;15.73;;;3.13;;
7128;SDS011;3606;52.930;8.644;2023-01-30T13:44:14;15.30;;;3.43;;
7128;SDS011;3606;52.930;8.644;2023-01-30T13:46:46;14.50;;;4.00;;
7128;SDS011;3606;52.930;8.644;2023-01-30T13:49:18;12.40;;;3.50;;
7128;SDS011;3606;52.930;8.644;2023-01-30T13:52:02;17.20;;;4.10;;
7128;SDS011;3606;52.930;8.644;2023-01-30T13:54:59;11.30;;;3.53;;
7128;SDS011;3606;52.930;8.644;2023-01-30T14:03:13;9.23;;;3.93;;
7128;SDS011;3606;52.930;8.644;2023-01-30T14:08:57;16.60;;;4.10;;
7128;SDS011;3606;52.930;8.644;2023-01-30T14:11:24;20.17;;;4.63;;
7128;SDS011;3606;52.930;8.644;2023-01-30T14:13:57;15.37;;;3.90;;
7128;SDS011;3606;52.930;8.644;2023-01-30T14:16:47;13.50;;;3.23;;
7128;SDS011;3606;52.930;8.644;2023-01-30T14:27:49;17.10;;;4.77;;
7128;SDS011;3606;52.930;8.644;2023-01-30T14:38:18;21.47;;;4.77;;
7128;SDS011;3606;52.930;8.644;2023-01-30T14:43:36;26.37;;;4.33;;
7128;SDS011;3606;52.930;8.644;2023-01-30T15:04:20;12.50;;;3.70;;
7128;SDS011;3606;52.930;8.644;2023-01-30T15:06:46;14.33;;;4.33;;
7128;SDS011;3606;52.930;8.644;2023-01-30T15:09:17;16.27;;;4.10;;
7128;SDS011;3606;52.930;8.644;2023-01-30T15:11:47;14.57;;;4.10;;
7128;SDS011;3606;52.930;8.644;2023-01-30T15:14:27;18.47;;;3.83;;
7128;SDS011;3606;52.930;8.644;2023-01-30T15:19:52;20.10;;;4.77;;
7128;SDS011;3606;52.930;8.644;2023-01-30T15:22:35;18.13;;;5.17;;
7128;SDS011;3606;52.930;8.644;2023-01-30T15:25:28;18.57;;;5.00;;
7128;SDS011;3606;52.930;8.644;2023-01-30T15:31:10;21.43;;;5.27;;
7128;SDS011;3606;52.930;8.644;2023-01-30T15:33:57;26.77;;;4.70;;
7128;SDS011;3606;52.930;8.644;2023-01-30T15:36:27;19.03;;;4.83;;
7128;SDS011;3606;52.930;8.644;2023-01-30T15:38:55;11.63;;;4.57;;
7128;SDS011;3606;52.930;8.644;2023-01-30T15:41:23;20.77;;;4.27;;
7128;SDS011;3606;52.930;8.644;2023-01-30T15:46:46;23.53;;;4.47;;
7128;SDS011;3606;52.930;8.644;2023-01-30T15:52:15;12.23;;;4.23;;
7128;SDS011;3606;52.930;8.644;2023-01-30T15:54:47;19.37;;;4.27;;
7128;SDS011;3606;52.930;8.644;2023-01-30T15:57:23;18.13;;;3.90;;
7128;SDS011;3606;52.930;8.644;2023-01-30T15:59:53;17.50;;;3.90;;
7128;SDS011;3606;52.930;8.644;2023-01-30T16:02:26;11.80;;;3.20;;
7128;SDS011;3606;52.930;8.644;2023-01-30T16:07:28;10.73;;;3.63;;
7128;SDS011;3606;52.930;8.644;2023-01-30T16:09:54;14.33;;;3.50;;
7128;SDS011;3606;52.930;8.644;2023-01-30T16:12:28;9.67;;;3.13;;
7128;SDS011;3606;52.930;8.644;2023-01-30T16:14:54;12.50;;;3.40;;
7128;SDS011;3606;52.930;8.644;2023-01-30T16:17:26;19.93;;;4.03;;
7128;SDS011;3606;52.930;8.644;2023-01-30T16:19:54;12.87;;;4.07;;
7128;SDS011;3606;52.930;8.644;2023-01-30T16:22:23;8.73;;;3.10;;
7128;SDS011;3606;52.930;8.644;2023-01-30T16:24:52;13.87;;;3.43;;
7128;SDS011;3606;52.930;8.644;2023-01-30T16:27:25;14.93;;;4.33;;
7128;SDS011;3606;52.930;8.644;2023-01-30T16:29:57;19.47;;;3.83;;
7128;SDS011;3606;52.930;8.644;2023-01-30T16:32:28;8.00;;;3.17;;
7128;SDS011;3606;52.930;8.644;2023-01-30T16:37:52;11.23;;;3.10;;
7128;SDS011;3606;52.930;8.644;2023-01-30T16:40:20;14.10;;;3.70;;
7128;SDS011;3606;52.930;8.644;2023-01-30T16:43:00;20.07;;;5.07;;
7128;SDS011;3606;52.930;8.644;2023-01-30T16:50:44;11.30;;;2.93;;
7128;SDS011;3606;52.930;8.644;2023-01-30T16:53:15;16.00;;;3.57;;
7128;SDS011;3606;52.930;8.644;2023-01-30T16:56:01;15.43;;;3.60;;
7128;SDS011;3606;52.930;8.644;2023-01-30T16:58:32;10.50;;;3.37;;
7128;SDS011;3606;52.930;8.644;2023-01-30T17:01:02;9.70;;;2.97;;
7128;SDS011;3606;52.930;8.644;2023-01-30T17:05:58;14.90;;;3.23;;
7128;SDS011;3606;52.930;8.644;2023-01-30T17:10:55;9.40;;;3.40;;
7128;SDS011;3606;52.930;8.644;2023-01-30T17:18:48;14.43;;;3.93;;
7128;SDS011;3606;52.930;8.644;2023-01-30T17:21:15;12.50;;;3.63;;
7128;SDS011;3606;52.930;8.644;2023-01-30T17:23:46;15.13;;;3.40;;
7128;SDS011;3606;52.930;8.644;2023-01-30T17:26:14;13.43;;;3.67;;
7128;SDS011;3606;52.930;8.644;2023-01-30T17:28:40;15.43;;;4.00;;
7128;SDS011;3606;52.930;8.644;2023-01-30T17:31:10;18.53;;;4.30;;
7128;SDS011;3606;52.930;8.644;2023-01-30T17:33:36;10.73;;;3.73;;
7128;SDS011;3606;52.930;8.644;2023-01-30T17:36:02;13.93;;;4.37;;
7128;SDS011;3606;52.930;8.644;2023-01-30T17:38:30;16.87;;;3.77;;
7128;SDS011;3606;52.930;8.644;2023-01-30T17:40:56;10.97;;;3.77;;
7128;SDS011;3606;52.930;8.644;2023-01-30T17:43:22;18.73;;;4.20;;
7128;SDS011;3606;52.930;8.644;2023-01-30T17:45:47;16.37;;;3.43;;
7128;SDS011;3606;52.930;8.644;2023-01-30T17:48:13;13.20;;;4.50;;
7128;SDS011;3606;52.930;8.644;2023-01-30T17:50:38;19.77;;;4.33;;
7128;SDS011;3606;52.930;8.644;2023-01-30T17:53:04;15.97;;;4.10;;
7128;SDS011;3606;52.930;8.644;2023-01-30T17:55:31;18.20;;;4.27;;
7128;SDS011;3606;52.930;8.644;2023-01-30T17:57:58;14.83;;;4.57;;
7128;SDS011;3606;52.930;8.644;2023-01-30T18:00:24;12.77;;;4.43;;
7128;SDS011;3606;52.930;8.644;2023-01-30T18:02:50;16.27;;;4.20;;
7128;SDS011;3606;52.930;8.644;2023-01-30T18:05:16;18.80;;;4.60;;
7128;SDS011;3606;52.930;8.644;2023-01-30T18:07:42;31.40;;;5.03;;
7128;SDS011;3606;52.930;8.644;2023-01-30T18:10:11;20.83;;;4.50;;
7128;SDS011;3606;52.930;8.644;2023-01-30T18:12:39;13.70;;;3.60;;
7128;SDS011;3606;52.930;8.644;2023-01-30T18:15:05;19.23;;;5.37;;